sensor_id;sensor_type;location;lat;lon;timestamp;temperature;humidity
19003;DHT22;9634;51.040;13.794;2022-08-19T00:04:35;22.00;99.90
19003;DHT22;9634;51.040;13.794;2022-08-19T00:09:39;22.00;99.90
19003;DHT22;9634;51.040;13.794;2022-08-19T00:14:42;22.00;99.90
19003;DHT22;9634;51.040;13.794;2022-08-19T00:19:44;22.00;99.90
19003;DHT22;9634;51.040;13.794;2022-08-19T00:24:48;22.00;99.90
19003;DHT22;9634;51.040;13.794;2022-08-19T00:29:50;21.90;99.90
19003;DHT22;9634;51.040;13.794;2022-08-19T00:34:52;22.00;99.90
19003;DHT22;9634;51.040;13.794;2022-08-19T00:39:56;22.00;99.90
19003;DHT22;9634;51.040;13.794;2022-08-19T00:44:58;22.00;99.90
19003;DHT22;9634;51.040;13.794;2022-08-19T00:50:01;21.90;99.90
19003;DHT22;9634;51.040;13.794;2022-08-19T00:55:08;21.90;99.90
19003;DHT22;9634;51.040;13.794;2022-08-19T01:00:16;21.90;99.90
19003;DHT22;9634;51.040;13.794;2022-08-19T01:05:22;21.90;99.90
19003;DHT22;9634;51.040;13.794;2022-08-19T01:10:29;21.80;99.90
19003;DHT22;9634;51.040;13.794;2022-08-19T01:15:35;21.70;99.90
19003;DHT22;9634;51.040;13.794;2022-08-19T01:20:41;21.60;99.90
19003;DHT22;9634;51.040;13.794;2022-08-19T01:25:48;21.60;99.90
19003;DHT22;9634;51.040;13.794;2022-08-19T01:30:51;21.60;99.90
19003;DHT22;9634;51.040;13.794;2022-08-19T01:36:03;21.70;99.90
19003;DHT22;9634;51.040;13.794;2022-08-19T01:41:07;21.70;99.90
19003;DHT22;9634;51.040;13.794;2022-08-19T01:46:10;21.70;99.90
19003;DHT22;9634;51.040;13.794;2022-08-19T01:51:13;21.70;99.90
19003;DHT22;9634;51.040;13.794;2022-08-19T01:56:17;21.60;99.90
19003;DHT22;9634;51.040;13.794;2022-08-19T02:01:20;21.60;99.90
19003;DHT22;9634;51.040;13.794;2022-08-19T02:06:22;21.60;99.90
19003;DHT22;9634;51.040;13.794;2022-08-19T02:11:28;21.60;99.90
19003;DHT22;9634;51.040;13.794;2022-08-19T02:16:32;21.60;99.90
19003;DHT22;9634;51.040;13.794;2022-08-19T02:21:35;21.60;99.90
19003;DHT22;9634;51.040;13.794;2022-08-19T02:26:39;21.60;99.90
19003;DHT22;9634;51.040;13.794;2022-08-19T02:31:42;21.60;99.90
19003;DHT22;9634;51.040;13.794;2022-08-19T02:36:44;21.70;99.90
19003;DHT22;9634;51.040;13.794;2022-08-19T02:41:48;21.70;99.90
19003;DHT22;9634;51.040;13.794;2022-08-19T02:46:52;21.60;99.90
19003;DHT22;9634;51.040;13.794;2022-08-19T02:51:56;21.60;99.90
19003;DHT22;9634;51.040;13.794;2022-08-19T02:56:59;21.60;99.90
19003;DHT22;9634;51.040;13.794;2022-08-19T03:02:02;21.60;99.90
19003;DHT22;9634;51.040;13.794;2022-08-19T03:07:04;21.50;99.90
19003;DHT22;9634;51.040;13.794;2022-08-19T03:12:08;21.60;99.90
19003;DHT22;9634;51.040;13.794;2022-08-19T03:17:11;21.60;99.90
19003;DHT22;9634;51.040;13.794;2022-08-19T03:22:13;21.60;99.90
19003;DHT22;9634;51.040;13.794;2022-08-19T03:27:17;21.60;99.90
19003;DHT22;9634;51.040;13.794;2022-08-19T03:32:19;21.60;99.90
19003;DHT22;9634;51.040;13.794;2022-08-19T03:37:22;21.50;99.90
19003;DHT22;9634;51.040;13.794;2022-08-19T03:42:26;21.50;99.90
19003;DHT22;9634;51.040;13.794;2022-08-19T03:47:28;21.60;99.90
19003;DHT22;9634;51.040;13.794;2022-08-19T03:52:31;21.60;99.90
19003;DHT22;9634;51.040;13.794;2022-08-19T03:57:34;21.70;99.90
19003;DHT22;9634;51.040;13.794;2022-08-19T04:02:37;21.70;99.90
19003;DHT22;9634;51.040;13.794;2022-08-19T04:07:39;21.70;99.90
19003;DHT22;9634;51.040;13.794;2022-08-19T04:12:43;21.70;99.90
19003;DHT22;9634;51.040;13.794;2022-08-19T04:17:45;21.70;99.90
19003;DHT22;9634;51.040;13.794;2022-08-19T04:22:48;21.70;99.90
19003;DHT22;9634;51.040;13.794;2022-08-19T04:27:52;21.70;99.90
19003;DHT22;9634;51.040;13.794;2022-08-19T04:32:54;21.60;99.90
19003;DHT22;9634;51.040;13.794;2022-08-19T04:37:57;21.60;99.90
19003;DHT22;9634;51.040;13.794;2022-08-19T04:43:00;21.50;99.90
19003;DHT22;9634;51.040;13.794;2022-08-19T04:48:03;21.50;99.90
19003;DHT22;9634;51.040;13.794;2022-08-19T04:53:06;21.50;99.90
19003;DHT22;9634;51.040;13.794;2022-08-19T04:58:10;21.60;99.90
19003;DHT22;9634;51.040;13.794;2022-08-19T05:03:12;21.60;99.90
19003;DHT22;9634;51.040;13.794;2022-08-19T05:08:20;21.60;99.90
19003;DHT22;9634;51.040;13.794;2022-08-19T05:13:24;21.60;99.90
19003;DHT22;9634;51.040;13.794;2022-08-19T05:18:27;21.60;99.90
19003;DHT22;9634;51.040;13.794;2022-08-19T05:23:47;21.70;99.90
19003;DHT22;9634;51.040;13.794;2022-08-19T05:28:51;21.60;99.90
19003;DHT22;9634;51.040;13.794;2022-08-19T05:33:54;21.70;99.90
19003;DHT22;9634;51.040;13.794;2022-08-19T05:38:59;21.70;99.90
19003;DHT22;9634;51.040;13.794;2022-08-19T05:44:05;21.70;99.90
19003;DHT22;9634;51.040;13.794;2022-08-19T05:49:09;21.60;99.90
19003;DHT22;9634;51.040;13.794;2022-08-19T05:54:12;21.60;99.90
19003;DHT22;9634;51.040;13.794;2022-08-19T05:59:17;21.60;99.90
19003;DHT22;9634;51.040;13.794;2022-08-19T06:04:20;21.50;99.90
19003;DHT22;9634;51.040;13.794;2022-08-19T06:09:23;21.50;99.90
19003;DHT22;9634;51.040;13.794;2022-08-19T06:14:28;21.40;99.90
19003;DHT22;9634;51.040;13.794;2022-08-19T06:19:31;21.30;99.90
19003;DHT22;9634;51.040;13.794;2022-08-19T06:24:33;21.30;99.90
19003;DHT22;9634;51.040;13.794;2022-08-19T06:29:38;21.30;99.90
19003;DHT22;9634;51.040;13.794;2022-08-19T06:34:40;21.40;99.90
19003;DHT22;9634;51.040;13.794;2022-08-19T06:39:44;21.50;99.90
19003;DHT22;9634;51.040;13.794;2022-08-19T06:44:48;21.50;99.90
19003;DHT22;9634;51.040;13.794;2022-08-19T06:49:52;21.50;99.90
19003;DHT22;9634;51.040;13.794;2022-08-19T06:55:01;21.50;99.90
19003;DHT22;9634;51.040;13.794;2022-08-19T07:00:06;21.50;99.90
19003;DHT22;9634;51.040;13.794;2022-08-19T07:05:12;21.60;99.90
19003;DHT22;9634;51.040;13.794;2022-08-19T07:10:14;21.70;99.90
19003;DHT22;9634;51.040;13.794;2022-08-19T07:15:18;21.70;99.90
19003;DHT22;9634;51.040;13.794;2022-08-19T07:20:22;21.80;99.90
19003;DHT22;9634;51.040;13.794;2022-08-19T07:25:24;21.80;99.90
19003;DHT22;9634;51.040;13.794;2022-08-19T07:30:30;21.70;99.90
19003;DHT22;9634;51.040;13.794;2022-08-19T07:35:33;21.60;99.90
19003;DHT22;9634;51.040;13.794;2022-08-19T07:40:35;21.60;99.90
19003;DHT22;9634;51.040;13.794;2022-08-19T07:45:39;21.40;99.90
19003;DHT22;9634;51.040;13.794;2022-08-19T07:50:43;21.40;99.90
19003;DHT22;9634;51.040;13.794;2022-08-19T07:55:46;21.40;99.90
19003;DHT22;9634;51.040;13.794;2022-08-19T08:00:50;21.40;99.90
19003;DHT22;9634;51.040;13.794;2022-08-19T08:05:53;21.40;99.90
19003;DHT22;9634;51.040;13.794;2022-08-19T08:11:14;21.30;99.90
19003;DHT22;9634;51.040;13.794;2022-08-19T08:16:18;21.30;99.90
19003;DHT22;9634;51.040;13.794;2022-08-19T08:21:21;21.30;99.90
19003;DHT22;9634;51.040;13.794;2022-08-19T08:26:24;21.40;99.90
19003;DHT22;9634;51.040;13.794;2022-08-19T08:31:28;21.60;99.90
19003;DHT22;9634;51.040;13.794;2022-08-19T08:36:30;21.70;99.90
19003;DHT22;9634;51.040;13.794;2022-08-19T08:41:39;21.80;99.90
19003;DHT22;9634;51.040;13.794;2022-08-19T08:46:48;21.80;99.90
19003;DHT22;9634;51.040;13.794;2022-08-19T08:51:54;21.70;99.90
19003;DHT22;9634;51.040;13.794;2022-08-19T08:57:01;21.80;99.90
19003;DHT22;9634;51.040;13.794;2022-08-19T09:02:06;22.00;99.90
19003;DHT22;9634;51.040;13.794;2022-08-19T09:07:30;22.50;99.90
19003;DHT22;9634;51.040;13.794;2022-08-19T09:12:42;23.10;99.90
19003;DHT22;9634;51.040;13.794;2022-08-19T09:17:47;23.90;99.90
19003;DHT22;9634;51.040;13.794;2022-08-19T09:22:50;24.50;99.90
19003;DHT22;9634;51.040;13.794;2022-08-19T09:27:53;24.80;99.90
19003;DHT22;9634;51.040;13.794;2022-08-19T09:32:58;24.70;99.90
19003;DHT22;9634;51.040;13.794;2022-08-19T09:38:01;24.40;99.90
19003;DHT22;9634;51.040;13.794;2022-08-19T09:43:04;24.70;99.90
19003;DHT22;9634;51.040;13.794;2022-08-19T09:48:08;25.20;99.90
19003;DHT22;9634;51.040;13.794;2022-08-19T09:53:11;25.30;99.90
19003;DHT22;9634;51.040;13.794;2022-08-19T09:58:13;25.60;99.90
19003;DHT22;9634;51.040;13.794;2022-08-19T10:03:17;26.00;99.90
19003;DHT22;9634;51.040;13.794;2022-08-19T10:08:22;26.40;99.90
19003;DHT22;9634;51.040;13.794;2022-08-19T10:13:28;26.80;99.90
19003;DHT22;9634;51.040;13.794;2022-08-19T10:18:32;26.50;99.90
19003;DHT22;9634;51.040;13.794;2022-08-19T10:23:36;26.30;99.90
19003;DHT22;9634;51.040;13.794;2022-08-19T10:28:39;26.90;99.90
19003;DHT22;9634;51.040;13.794;2022-08-19T10:33:43;27.10;99.90
19003;DHT22;9634;51.040;13.794;2022-08-19T10:38:47;27.70;99.90
19003;DHT22;9634;51.040;13.794;2022-08-19T10:43:51;27.60;99.90
19003;DHT22;9634;51.040;13.794;2022-08-19T10:48:56;29.00;99.90
19003;DHT22;9634;51.040;13.794;2022-08-19T10:53:59;31.10;99.90
19003;DHT22;9634;51.040;13.794;2022-08-19T10:59:01;30.10;99.90
19003;DHT22;9634;51.040;13.794;2022-08-19T11:04:06;28.40;99.90
19003;DHT22;9634;51.040;13.794;2022-08-19T11:09:11;26.60;99.90
19003;DHT22;9634;51.040;13.794;2022-08-19T11:14:16;26.00;99.90
19003;DHT22;9634;51.040;13.794;2022-08-19T11:19:20;26.70;99.90
19003;DHT22;9634;51.040;13.794;2022-08-19T11:24:25;27.60;99.90
19003;DHT22;9634;51.040;13.794;2022-08-19T11:29:28;27.20;99.90
19003;DHT22;9634;51.040;13.794;2022-08-19T11:34:32;26.60;99.90
19003;DHT22;9634;51.040;13.794;2022-08-19T11:39:36;26.50;99.90
19003;DHT22;9634;51.040;13.794;2022-08-19T11:44:39;26.30;99.90
19003;DHT22;9634;51.040;13.794;2022-08-19T11:49:43;25.80;99.90
19003;DHT22;9634;51.040;13.794;2022-08-19T11:54:45;25.30;99.90
19003;DHT22;9634;51.040;13.794;2022-08-19T11:59:49;25.20;99.90
19003;DHT22;9634;51.040;13.794;2022-08-19T12:04:52;25.30;99.90
19003;DHT22;9634;51.040;13.794;2022-08-19T12:09:55;25.30;99.90
19003;DHT22;9634;51.040;13.794;2022-08-19T12:14:57;25.20;99.90
19003;DHT22;9634;51.040;13.794;2022-08-19T12:20:01;25.10;99.90
19003;DHT22;9634;51.040;13.794;2022-08-19T12:25:05;24.60;99.90
19003;DHT22;9634;51.040;13.794;2022-08-19T12:30:10;24.10;99.90
19003;DHT22;9634;51.040;13.794;2022-08-19T12:35:14;23.80;99.90
19003;DHT22;9634;51.040;13.794;2022-08-19T12:40:17;23.60;99.90
19003;DHT22;9634;51.040;13.794;2022-08-19T12:45:19;23.50;99.90
19003;DHT22;9634;51.040;13.794;2022-08-19T12:50:23;23.60;99.90
19003;DHT22;9634;51.040;13.794;2022-08-19T12:55:26;23.70;99.90
19003;DHT22;9634;51.040;13.794;2022-08-19T13:00:30;23.90;99.90
19003;DHT22;9634;51.040;13.794;2022-08-19T13:05:34;24.40;99.90
19003;DHT22;9634;51.040;13.794;2022-08-19T13:10:37;25.00;99.90
19003;DHT22;9634;51.040;13.794;2022-08-19T13:15:41;25.20;99.90
19003;DHT22;9634;51.040;13.794;2022-08-19T13:20:45;25.40;99.90
19003;DHT22;9634;51.040;13.794;2022-08-19T13:25:56;25.30;99.90
19003;DHT22;9634;51.040;13.794;2022-08-19T13:30:58;24.90;99.90
19003;DHT22;9634;51.040;13.794;2022-08-19T13:36:20;24.80;99.90
19003;DHT22;9634;51.040;13.794;2022-08-19T13:41:22;24.90;99.90
19003;DHT22;9634;51.040;13.794;2022-08-19T13:46:24;24.40;99.90
19003;DHT22;9634;51.040;13.794;2022-08-19T13:51:29;24.10;99.90
19003;DHT22;9634;51.040;13.794;2022-08-19T13:56:32;24.00;99.90
19003;DHT22;9634;51.040;13.794;2022-08-19T14:01:34;24.10;99.90
19003;DHT22;9634;51.040;13.794;2022-08-19T14:06:38;23.90;99.90
19003;DHT22;9634;51.040;13.794;2022-08-19T14:11:40;23.60;99.90
19003;DHT22;9634;51.040;13.794;2022-08-19T14:16:42;23.60;99.90
19003;DHT22;9634;51.040;13.794;2022-08-19T14:21:46;23.60;99.90
19003;DHT22;9634;51.040;13.794;2022-08-19T14:26:48;23.60;99.90
19003;DHT22;9634;51.040;13.794;2022-08-19T14:31:51;23.60;99.90
19003;DHT22;9634;51.040;13.794;2022-08-19T14:36:54;23.50;99.90
19003;DHT22;9634;51.040;13.794;2022-08-19T14:41:56;23.50;99.90
19003;DHT22;9634;51.040;13.794;2022-08-19T14:46:59;23.50;99.90
19003;DHT22;9634;51.040;13.794;2022-08-19T14:52:03;23.20;99.90
19003;DHT22;9634;51.040;13.794;2022-08-19T14:57:06;23.10;99.90
19003;DHT22;9634;51.040;13.794;2022-08-19T15:02:08;23.00;99.90
19003;DHT22;9634;51.040;13.794;2022-08-19T15:07:12;23.00;99.90
19003;DHT22;9634;51.040;13.794;2022-08-19T15:12:14;23.00;99.90
19003;DHT22;9634;51.040;13.794;2022-08-19T15:17:17;23.10;99.90
19003;DHT22;9634;51.040;13.794;2022-08-19T15:22:21;23.10;99.90
19003;DHT22;9634;51.040;13.794;2022-08-19T15:27:23;22.90;99.90
19003;DHT22;9634;51.040;13.794;2022-08-19T15:32:25;22.80;99.90
19003;DHT22;9634;51.040;13.794;2022-08-19T15:37:29;22.70;99.90
19003;DHT22;9634;51.040;13.794;2022-08-19T15:42:32;22.70;99.90
19003;DHT22;9634;51.040;13.794;2022-08-19T15:47:35;22.80;99.90
19003;DHT22;9634;51.040;13.794;2022-08-19T15:52:45;23.00;99.90
19003;DHT22;9634;51.040;13.794;2022-08-19T15:57:47;23.00;99.90
19003;DHT22;9634;51.040;13.794;2022-08-19T16:03:14;23.20;99.90
19003;DHT22;9634;51.040;13.794;2022-08-19T16:08:35;23.10;99.90
19003;DHT22;9634;51.040;13.794;2022-08-19T16:13:38;23.20;99.90
19003;DHT22;9634;51.040;13.794;2022-08-19T16:18:40;23.30;99.90
19003;DHT22;9634;51.040;13.794;2022-08-19T16:23:44;23.30;99.90
19003;DHT22;9634;51.040;13.794;2022-08-19T16:28:47;23.00;99.90
19003;DHT22;9634;51.040;13.794;2022-08-19T16:33:49;22.80;99.90
19003;DHT22;9634;51.040;13.794;2022-08-19T16:38:53;22.60;99.90
19003;DHT22;9634;51.040;13.794;2022-08-19T16:43:56;22.60;99.90
19003;DHT22;9634;51.040;13.794;2022-08-19T16:48:59;22.70;99.90
19003;DHT22;9634;51.040;13.794;2022-08-19T16:54:04;22.70;99.90
19003;DHT22;9634;51.040;13.794;2022-08-19T16:59:06;22.80;99.90
19003;DHT22;9634;51.040;13.794;2022-08-19T17:04:09;23.00;99.90
19003;DHT22;9634;51.040;13.794;2022-08-19T17:09:14;23.00;99.90
19003;DHT22;9634;51.040;13.794;2022-08-19T17:14:18;23.00;99.90
19003;DHT22;9634;51.040;13.794;2022-08-19T17:19:21;22.80;99.90
19003;DHT22;9634;51.040;13.794;2022-08-19T17:24:25;22.70;99.90
19003;DHT22;9634;51.040;13.794;2022-08-19T17:29:27;22.50;99.90
19003;DHT22;9634;51.040;13.794;2022-08-19T17:34:30;22.40;99.90
19003;DHT22;9634;51.040;13.794;2022-08-19T17:39:34;22.30;99.90
19003;DHT22;9634;51.040;13.794;2022-08-19T17:44:38;22.30;99.90
19003;DHT22;9634;51.040;13.794;2022-08-19T17:49:40;22.30;99.90
19003;DHT22;9634;51.040;13.794;2022-08-19T17:54:44;22.30;99.90
19003;DHT22;9634;51.040;13.794;2022-08-19T17:59:47;22.40;99.90
19003;DHT22;9634;51.040;13.794;2022-08-19T18:04:50;22.40;99.90
19003;DHT22;9634;51.040;13.794;2022-08-19T18:09:53;22.40;99.90
19003;DHT22;9634;51.040;13.794;2022-08-19T18:14:58;22.30;99.90
19003;DHT22;9634;51.040;13.794;2022-08-19T18:20:04;22.30;99.90
19003;DHT22;9634;51.040;13.794;2022-08-19T18:25:12;22.20;99.90
19003;DHT22;9634;51.040;13.794;2022-08-19T18:30:15;22.20;99.90
19003;DHT22;9634;51.040;13.794;2022-08-19T18:35:20;22.20;99.90
19003;DHT22;9634;51.040;13.794;2022-08-19T18:40:30;22.20;99.90
19003;DHT22;9634;51.040;13.794;2022-08-19T18:45:50;22.20;99.90
19003;DHT22;9634;51.040;13.794;2022-08-19T18:51:10;22.20;99.90
19003;DHT22;9634;51.040;13.794;2022-08-19T18:56:16;22.20;99.90
19003;DHT22;9634;51.040;13.794;2022-08-19T19:01:22;22.10;99.90
19003;DHT22;9634;51.040;13.794;2022-08-19T19:06:30;22.10;99.90
19003;DHT22;9634;51.040;13.794;2022-08-19T19:11:39;22.00;99.90
19003;DHT22;9634;51.040;13.794;2022-08-19T19:16:43;22.00;99.90
19003;DHT22;9634;51.040;13.794;2022-08-19T19:21:48;22.00;99.90
19003;DHT22;9634;51.040;13.794;2022-08-19T19:26:52;21.90;99.90
19003;DHT22;9634;51.040;13.794;2022-08-19T19:31:54;21.90;99.90
19003;DHT22;9634;51.040;13.794;2022-08-19T19:36:56;21.80;99.90
19003;DHT22;9634;51.040;13.794;2022-08-19T19:42:05;21.70;99.90
19003;DHT22;9634;51.040;13.794;2022-08-19T19:47:08;21.70;99.90
19003;DHT22;9634;51.040;13.794;2022-08-19T19:52:10;21.80;99.90
19003;DHT22;9634;51.040;13.794;2022-08-19T19:57:14;21.70;99.90
19003;DHT22;9634;51.040;13.794;2022-08-19T20:02:16;21.70;99.90
19003;DHT22;9634;51.040;13.794;2022-08-19T20:07:20;21.70;99.90
19003;DHT22;9634;51.040;13.794;2022-08-19T20:12:44;21.70;99.90
19003;DHT22;9634;51.040;13.794;2022-08-19T20:17:47;21.60;99.90
19003;DHT22;9634;51.040;13.794;2022-08-19T20:22:49;21.60;99.90
19003;DHT22;9634;51.040;13.794;2022-08-19T20:27:55;21.60;99.90
19003;DHT22;9634;51.040;13.794;2022-08-19T20:32:57;21.60;99.90
19003;DHT22;9634;51.040;13.794;2022-08-19T20:37:59;21.60;99.90
19003;DHT22;9634;51.040;13.794;2022-08-19T20:43:08;21.60;99.90
19003;DHT22;9634;51.040;13.794;2022-08-19T20:48:10;21.50;99.90
19003;DHT22;9634;51.040;13.794;2022-08-19T20:53:15;21.40;99.90
19003;DHT22;9634;51.040;13.794;2022-08-19T20:58:20;21.40;99.90
19003;DHT22;9634;51.040;13.794;2022-08-19T21:03:25;21.30;99.90
19003;DHT22;9634;51.040;13.794;2022-08-19T21:08:27;21.40;99.90
19003;DHT22;9634;51.040;13.794;2022-08-19T21:13:31;21.40;99.90
19003;DHT22;9634;51.040;13.794;2022-08-19T21:18:34;21.30;99.90
19003;DHT22;9634;51.040;13.794;2022-08-19T21:23:36;21.30;99.90
19003;DHT22;9634;51.040;13.794;2022-08-19T21:28:40;21.30;99.90
19003;DHT22;9634;51.040;13.794;2022-08-19T21:33:43;21.20;99.90
19003;DHT22;9634;51.040;13.794;2022-08-19T21:38:45;21.30;99.90
19003;DHT22;9634;51.040;13.794;2022-08-19T21:43:49;21.50;99.90
19003;DHT22;9634;51.040;13.794;2022-08-19T21:48:51;21.50;99.90
19003;DHT22;9634;51.040;13.794;2022-08-19T21:53:54;21.40;99.90
19003;DHT22;9634;51.040;13.794;2022-08-19T21:58:58;21.40;99.90
19003;DHT22;9634;51.040;13.794;2022-08-19T22:04:01;21.30;99.90
19003;DHT22;9634;51.040;13.794;2022-08-19T22:09:03;21.20;99.90
19003;DHT22;9634;51.040;13.794;2022-08-19T22:14:07;21.20;99.90
19003;DHT22;9634;51.040;13.794;2022-08-19T22:19:09;21.20;99.90
19003;DHT22;9634;51.040;13.794;2022-08-19T22:24:11;21.30;99.90
19003;DHT22;9634;51.040;13.794;2022-08-19T22:29:15;21.20;99.90
19003;DHT22;9634;51.040;13.794;2022-08-19T22:34:18;21.40;99.90
19003;DHT22;9634;51.040;13.794;2022-08-19T22:39:20;21.40;99.90
19003;DHT22;9634;51.040;13.794;2022-08-19T22:44:24;21.30;99.90
19003;DHT22;9634;51.040;13.794;2022-08-19T22:49:26;21.40;99.90
19003;DHT22;9634;51.040;13.794;2022-08-19T22:54:28;21.30;99.90
19003;DHT22;9634;51.040;13.794;2022-08-19T22:59:32;21.40;99.90
19003;DHT22;9634;51.040;13.794;2022-08-19T23:04:35;21.40;99.90
19003;DHT22;9634;51.040;13.794;2022-08-19T23:09:38;21.50;99.90
19003;DHT22;9634;51.040;13.794;2022-08-19T23:14:42;21.40;99.90
19003;DHT22;9634;51.040;13.794;2022-08-19T23:19:44;21.30;99.90
19003;DHT22;9634;51.040;13.794;2022-08-19T23:24:47;21.30;99.90
19003;DHT22;9634;51.040;13.794;2022-08-19T23:29:50;21.30;99.90
19003;DHT22;9634;51.040;13.794;2022-08-19T23:35:11;21.30;99.90
19003;DHT22;9634;51.040;13.794;2022-08-19T23:40:13;21.30;99.90
19003;DHT22;9634;51.040;13.794;2022-08-19T23:45:20;21.20;99.90
19003;DHT22;9634;51.040;13.794;2022-08-19T23:50:24;21.20;99.90
19003;DHT22;9634;51.040;13.794;2022-08-19T23:55:30;21.10;99.90
